Time;durP1;ratioP1;P1;durP2;ratioP2;P2;SDS_P1;SDS_P2;PMS_P1;PMS_P2;Temp;Humidity;BMP_temperature;BMP_pressure;BME280_temperature;BME280_humidity;BME280_pressure;Samples;Min_cycle;Max_cycle;Signal;HPM_P1;HPM_P2
2022/02/18 00:01:29;;;;;;;;;13.50;10.75;;;;;12.91;55.49;100932.31;5042793;28;45458;-48
2022/02/18 00:03:55;;;;;;;;;12.00;10.50;;;;;12.88;55.35;100935.03;5043222;28;45248;-51
2022/02/18 00:06:21;;;;;;;;;10.25;7.00;;;;;12.82;55.21;100927.25;5041757;28;45213;-46
2022/02/18 00:08:46;;;;;;;;;13.00;9.25;;;;;12.83;55.54;100921.06;5043120;28;45172;-50
2022/02/18 00:11:11;;;;;;;;;10.50;7.50;;;;;12.81;55.44;100914.94;5042192;28;46466;-48
2022/02/18 00:13:37;;;;;;;;;11.00;7.00;;;;;12.76;55.47;100916.81;5043187;28;45224;-48
2022/02/18 00:16:03;;;;;;;;;13.50;8.00;;;;;12.76;55.54;100901.84;5043028;28;45227;-51
2022/02/18 00:18:28;;;;;;;;;9.50;7.50;;;;;12.75;55.61;100907.16;5043136;28;45456;-50
2022/02/18 00:20:54;;;;;;;;;7.50;6.50;;;;;12.70;55.63;100890.56;5042700;28;46005;-47
2022/02/18 00:23:19;;;;;;;;;10.50;6.50;;;;;12.65;56.09;100888.91;5042853;28;45283;-49
2022/02/18 00:25:45;;;;;;;;;8.25;6.75;;;;;12.57;56.07;100869.72;5042453;28;45162;-50
2022/02/18 00:28:10;;;;;;;;;10.25;4.25;;;;;12.62;55.89;100870.50;5042723;28;45246;-50
2022/02/18 00:30:35;;;;;;;;;13.25;6.50;;;;;12.59;56.05;100873.22;5042513;28;45996;-49
2022/02/18 00:33:01;;;;;;;;;9.50;8.75;;;;;12.60;55.96;100867.06;5042675;28;45386;-47
2022/02/18 00:35:26;;;;;;;;;11.00;8.00;;;;;12.61;55.92;100871.41;5042645;28;45311;-47
2022/02/18 00:37:54;;;;;;;;;11.50;7.50;;;;;12.57;56.21;100869.72;5042692;28;45474;-48
2022/02/18 00:40:21;;;;;;;;;6.25;5.00;;;;;12.60;56.41;100867.06;5042306;28;47155;-48
2022/02/18 00:42:47;;;;;;;;;9.75;6.00;;;;;12.57;56.46;100856.56;5042209;28;45266;-48
2022/02/18 00:45:13;;;;;;;;;12.75;8.50;;;;;12.60;56.40;100845.06;5042212;28;45493;-48
2022/02/18 00:47:38;;;;;;;;;11.00;8.00;;;;;12.59;56.32;100846.84;5042438;28;45157;-47
2022/02/18 00:50:04;;;;;;;;;13.25;7.25;;;;;12.57;56.27;100848.63;5042279;28;45423;-52
2022/02/18 00:52:30;;;;;;;;;15.25;8.75;;;;;12.56;56.27;100833.72;5041094;28;45799;-47
2022/02/18 00:54:55;;;;;;;;;9.50;8.00;;;;;12.58;56.54;100815.22;5040794;28;45532;-48
2022/02/18 00:57:20;;;;;;;;;11.50;9.25;;;;;12.56;56.83;100817.03;5042314;28;45477;-49
2022/02/18 00:59:46;;;;;;;;;9.50;8.25;;;;;12.52;56.65;100822.38;5041872;28;45888;-50
2022/02/18 01:02:12;;;;;;;;;17.25;8.00;;;;;12.50;56.98;100802.22;5042219;28;45525;-51
2022/02/18 01:04:38;;;;;;;;;11.00;7.75;;;;;12.48;56.78;100807.53;5042178;28;45548;-50
2022/02/18 01:07:04;;;;;;;;;8.25;6.75;;;;;12.53;56.82;100804.81;5042242;28;45463;-49
2022/02/18 01:09:30;;;;;;;;;8.00;6.75;;;;;12.54;56.68;100797.75;5041022;28;46266;-49
2022/02/18 01:11:55;;;;;;;;;10.50;9.75;;;;;12.50;57.04;100791.66;5040751;28;45338;-49
2022/02/18 01:14:20;;;;;;;;;9.50;8.25;;;;;12.52;56.84;100796.00;5040693;28;45267;-50
2022/02/18 01:16:46;;;;;;;;;9.00;7.25;;;;;12.53;56.99;100783.72;5040855;28;45716;-49
2022/02/18 01:19:11;;;;;;;;;10.00;7.00;;;;;12.55;56.94;100789.81;5041734;28;46309;-51
2022/02/18 01:21:37;;;;;;;;;13.50;9.25;;;;;12.55;56.84;100767.84;5041976;28;45338;-50
2022/02/18 01:24:05;;;;;;;;;11.00;7.50;;;;;12.56;57.01;100757.28;5041793;28;46016;-47
2022/02/18 01:26:31;;;;;;;;;9.00;7.50;;;;;12.61;56.92;100759.81;5041676;28;45493;-50
2022/02/18 01:28:57;;;;;;;;;8.75;7.75;;;;;12.62;57.23;100751.00;5041484;28;45589;-48
2022/02/18 01:31:22;;;;;;;;;10.50;9.75;;;;;12.61;57.18;100744.00;5041613;28;45351;-50
2022/02/18 01:33:48;;;;;;;;;11.50;8.00;;;;;12.61;57.31;100747.50;5041677;28;45323;-49
2022/02/18 01:36:14;;;;;;;;;11.00;6.00;;;;;12.63;57.29;100748.34;5041706;28;45330;-49
2022/02/18 01:38:41;;;;;;;;;10.50;7.25;;;;;12.63;57.48;100729.88;5041440;28;46988;-49
2022/02/18 01:41:06;;;;;;;;;12.25;7.25;;;;;12.59;57.79;100717.69;5041155;28;45279;-51
2022/02/18 01:43:32;;;;;;;;;8.25;7.25;;;;;12.62;57.65;100712.31;5041377;28;45581;-52
2022/02/18 01:45:57;;;;;;;;;7.00;6.00;;;;;12.58;57.96;100699.25;5041567;28;45240;-52
2022/02/18 01:48:22;;;;;;;;;9.75;8.00;;;;;12.56;58.80;100691.38;5040142;28;46178;-50
2022/02/18 01:50:48;;;;;;;;;5.25;5.25;;;;;12.57;58.85;100681.72;5040060;28;45295;-51
2022/02/18 01:53:14;;;;;;;;;11.00;8.75;;;;;12.55;59.08;100671.19;5041479;28;45307;-50
2022/02/18 01:55:40;;;;;;;;;8.75;7.25;;;;;12.55;58.87;100680.88;5040976;28;45262;-50
2022/02/18 01:58:06;;;;;;;;;8.75;7.00;;;;;12.58;58.98;100680.78;5041137;28;45247;-50
2022/02/18 02:00:33;;;;;;;;;8.50;6.00;;;;;12.56;58.95;100672.91;5041333;28;45477;-52
2022/02/18 02:03:02;;;;;;;;;10.25;5.50;;;;;12.52;59.36;100658.09;5041142;28;45340;-49
2022/02/18 02:05:27;;;;;;;;;9.25;7.25;;;;;12.54;59.20;100656.28;5041197;28;45220;-50
2022/02/18 02:07:53;;;;;;;;;10.00;7.00;;;;;12.50;59.51;100644.97;5040924;28;46309;-52
2022/02/18 02:10:18;;;;;;;;;5.25;5.00;;;;;12.48;59.59;100640.63;5039526;28;45275;-47
2022/02/18 02:12:50;;;;;;;;;10.00;6.00;;;;;12.45;59.97;100638.03;5040910;28;45226;-48
2022/02/18 02:15:18;;;;;;;;;8.25;6.00;;;;;12.42;60.12;100630.22;5041324;28;45371;-49
2022/02/18 02:17:44;;;;;;;;;6.00;6.00;;;;;12.38;60.33;100624.16;5040849;28;45363;-49
2022/02/18 02:20:11;;;;;;;;;8.00;6.00;;;;;12.36;60.79;100620.69;5040898;28;45230;-47
2022/02/18 02:22:36;;;;;;;;;7.75;6.75;;;;;12.34;60.63;100623.34;5040581;28;45410;-51
2022/02/18 02:25:03;;;;;;;;;1.75;1.00;;;;;12.37;60.40;100603.13;5040805;28;45330;-50
2022/02/18 02:27:30;;;;;;;;;7.00;6.00;;;;;12.31;60.83;100586.56;5040464;28;46498;-51
2022/02/18 02:29:55;;;;;;;;;5.75;5.75;;;;;12.32;60.87;100582.13;5040764;28;45343;-51
2022/02/18 02:32:21;;;;;;;;;7.00;5.00;;;;;12.33;60.91;100579.47;5040814;28;45340;-48
2022/02/18 02:34:46;;;;;;;;;7.00;5.00;;;;;12.33;60.78;100576.81;5039629;28;45658;-51
2022/02/18 02:37:12;;;;;;;;;6.25;6.25;;;;;12.32;61.25;100575.09;5040600;28;45231;-53
2022/02/18 02:39:37;;;;;;;;;5.00;5.00;;;;;12.29;61.17;100577.81;5040529;28;45204;-50
2022/02/18 02:42:05;;;;;;;;;10.25;8.25;;;;;12.35;61.22;100574.16;5040499;28;45220;-53
2022/02/18 02:44:32;;;;;;;;;5.25;5.25;;;;;12.32;61.22;100567.19;5040644;28;45415;-50
2022/02/18 02:46:57;;;;;;;;;5.00;5.00;;;;;12.33;61.81;100562.81;5040218;28;46231;-52
2022/02/18 02:49:23;;;;;;;;;7.75;6.50;;;;;12.34;61.61;100548.72;5040355;28;45346;-51
2022/02/18 02:51:49;;;;;;;;;5.50;5.50;;;;;12.36;62.14;100552.16;5040669;28;45474;-49
2022/02/18 02:54:15;;;;;;;;;8.00;5.75;;;;;12.33;62.16;100542.56;5040515;28;45466;-52
2022/02/18 02:56:41;;;;;;;;;5.25;4.00;;;;;12.34;62.50;100531.13;5039930;28;46449;-51
2022/02/18 02:59:06;;;;;;;;;5.75;4.50;;;;;12.38;62.18;100523.13;5040554;28;45203;-52
2022/02/18 03:01:31;;;;;;;;;5.00;4.75;;;;;12.40;62.36;100516.06;5040384;28;45536;-52
2022/02/18 03:03:57;;;;;;;;;6.00;6.00;;;;;12.40;62.48;100510.81;5040401;28;45410;-52
2022/02/18 03:06:23;;;;;;;;;7.00;5.25;;;;;12.41;62.93;100509.91;5040123;28;46164;-51
2022/02/18 03:08:49;;;;;;;;;6.00;5.50;;;;;12.45;63.03;100511.53;5040390;28;45155;-49
2022/02/18 03:11:17;;;;;;;;;5.00;5.00;;;;;12.44;63.16;100494.00;5039859;28;45213;-51
2022/02/18 03:13:48;;;;;;;;;6.00;5.00;;;;;12.43;63.35;100494.94;5040256;28;45420;-51
2022/02/18 03:16:15;;;;;;;;;7.00;5.00;;;;;12.46;63.49;100494.84;5039957;28;45228;-52
2022/02/18 03:18:42;;;;;;;;;5.50;5.50;;;;;12.46;63.52;100500.97;5040388;28;45232;-51
2022/02/18 03:21:07;;;;;;;;;4.50;3.00;;;;;12.47;63.60;100475.47;5038806;28;45351;-52
2022/02/18 03:23:34;;;;;;;;;6.25;5.25;;;;;12.50;63.74;100481.53;5040165;28;45298;-52
2022/02/18 03:25:59;;;;;;;;;5.50;3.75;;;;;12.56;63.64;100474.38;5039563;28;45427;-52
2022/02/18 03:28:25;;;;;;;;;4.25;4.00;;;;;12.62;63.87;100480.34;5039986;28;45369;-53
2022/02/18 03:30:51;;;;;;;;;3.00;3.00;;;;;12.63;63.86;100481.22;5040076;28;45308;-53
2022/02/18 03:33:16;;;;;;;;;2.25;2.25;;;;;12.66;64.19;100486.41;5039254;28;45282;-48
2022/02/18 03:35:42;;;;;;;;;1.25;1.25;;;;;12.68;63.90;100469.63;5039752;28;46255;-53
2022/02/18 03:38:07;;;;;;;;;3.50;2.25;;;;;12.71;63.87;100465.19;5039953;28;45339;-50
2022/02/18 03:40:33;;;;;;;;;3.00;2.00;;;;;12.72;64.46;100464.28;5039484;28;45473;-52
2022/02/18 03:42:59;;;;;;;;;2.25;1.75;;;;;12.71;63.87;100423.00;5038469;28;45674;-51
2022/02/18 03:45:26;;;;;;;;;1.00;1.00;;;;;12.80;64.58;100463.19;5039637;28;45288;-52
2022/02/18 03:47:51;;;;;;;;;1.75;1.00;;;;;12.80;64.75;100463.19;5039884;28;45359;-52
2022/02/18 03:50:17;;;;;;;;;0.75;0.75;;;;;12.86;64.77;100448.09;5038389;28;45387;-53
2022/02/18 03:52:43;;;;;;;;;0.00;0.00;;;;;12.89;64.81;100446.19;5039762;28;45640;-51
2022/02/18 03:55:08;;;;;;;;;0.75;0.75;;;;;12.89;64.33;100446.19;5039514;28;46122;-50
2022/02/18 03:57:33;;;;;;;;;1.00;1.00;;;;;12.92;64.73;100440.00;5039566;28;45344;-53
2022/02/18 03:59:59;;;;;;;;;1.00;1.00;;;;;12.94;64.77;100443.44;5039797;28;45352;-52
2022/02/18 04:02:24;;;;;;;;;0.00;0.00;;;;;12.92;64.83;100440.84;5039685;28;45244;-53
2022/02/18 04:04:50;;;;;;;;;0.25;0.00;;;;;12.98;64.64;100450.34;5038174;28;47968;-52
2022/02/18 04:07:15;;;;;;;;;0.00;0.00;;;;;12.98;65.09;100447.72;5039637;28;45346;-51
2022/02/18 04:09:40;;;;;;;;;0.25;0.25;;;;;13.03;64.78;100442.31;5039119;28;45294;-50
2022/02/18 04:12:06;;;;;;;;;0.00;0.00;;;;;13.01;64.85;100429.16;5039454;28;45472;-52
2022/02/18 04:14:32;;;;;;;;;1.00;0.00;;;;;13.06;64.87;100436.97;5039235;28;47033;-52
2022/02/18 04:16:57;;;;;;;;;0.00;0.00;;;;;13.10;64.58;100417.47;5039616;28;45172;-49
2022/02/18 04:19:23;;;;;;;;;0.00;0.00;;;;;13.11;64.93;100408.66;5038085;28;45616;-51
2022/02/18 04:21:48;;;;;;;;;0.00;0.00;;;;;13.11;64.88;100408.66;5039688;28;45439;-51
2022/02/18 04:24:14;;;;;;;;;0.00;0.00;;;;;13.15;65.01;100412.94;5038994;28;45327;-53
2022/02/18 04:26:39;;;;;;;;;1.00;0.50;;;;;13.17;64.53;100404.06;5039247;28;45183;-52
2022/02/18 04:29:05;;;;;;;;;0.00;0.00;;;;;13.22;64.58;100403.03;5039259;28;45521;-52
2022/02/18 04:31:31;;;;;;;;;1.00;0.00;;;;;13.22;64.41;100390.75;5039384;28;45475;-52
2022/02/18 04:33:56;;;;;;;;;0.00;0.00;;;;;13.23;64.21;100391.59;5019526;28;47363;-51
2022/02/18 04:36:21;;;;;;;;;0.00;0.00;;;;;13.22;64.41;100393.38;5039298;28;45457;-53
2022/02/18 04:38:47;;;;;;;;;0.00;0.00;;;;;13.25;64.27;100384.50;5039042;28;45363;-51
2022/02/18 04:41:13;;;;;;;;;0.25;0.00;;;;;13.25;64.23;100395.06;5038941;28;45391;-51
2022/02/18 04:43:38;;;;;;;;;1.00;1.00;;;;;13.27;64.08;100375.63;5037318;28;45371;-51
2022/02/18 04:46:04;;;;;;;;;0.00;0.00;;;;;13.28;64.73;100368.56;5041970;28;45322;-52
2022/02/18 04:48:29;;;;;;;;;1.00;1.00;;;;;13.27;64.21;100390.56;5042601;28;45366;-48
2022/02/18 04:50:55;;;;;;;;;0.75;0.00;;;;;13.31;64.60;100376.41;5042531;28;45443;-49
2022/02/18 04:53:20;;;;;;;;;0.00;0.00;;;;;13.32;64.01;100367.56;5041123;28;48110;-52
2022/02/18 04:55:45;;;;;;;;;0.00;0.00;;;;;13.35;64.33;100370.09;5042276;28;45365;-58
2022/02/18 04:58:11;;;;;;;;;0.50;0.50;;;;;13.33;64.18;100369.28;5042416;28;45400;-53
2022/02/18 05:00:36;;;;;;;;;1.00;0.00;;;;;13.35;64.26;100367.47;5042271;28;45225;-51
2022/02/18 05:03:02;;;;;;;;;0.00;0.00;;;;;13.31;64.32;100366.69;5042014;28;45525;-48
2022/02/18 05:05:27;;;;;;;;;0.00;0.00;;;;;13.33;64.09;100356.97;5042286;28;45413;-50
2022/02/18 05:07:52;;;;;;;;;0.00;0.00;;;;;13.35;64.11;100348.13;5042392;28;45288;-50
2022/02/18 05:10:18;;;;;;;;;1.00;0.00;;;;;13.31;63.93;100340.31;5040263;28;45211;-53
2022/02/18 05:12:43;;;;;;;;;1.00;0.00;;;;;13.31;64.58;100339.44;5041907;28;46099;-52
2022/02/18 05:15:09;;;;;;;;;1.00;0.00;;;;;13.31;63.87;100347.38;5042146;28;45240;-52
2022/02/18 05:17:34;;;;;;;;;1.00;0.00;;;;;13.32;63.92;100341.19;5042010;28;45226;-48
2022/02/18 05:20:00;;;;;;;;;0.00;0.00;;;;;13.32;64.58;100326.19;5041905;28;45438;-49
2022/02/18 05:22:26;;;;;;;;;0.75;0.50;;;;;13.33;64.45;100317.38;5042105;28;46287;-53
2022/02/18 05:24:51;;;;;;;;;0.00;0.00;;;;;13.30;64.26;100309.53;5041915;28;45385;-50
2022/02/18 05:27:17;;;;;;;;;3.00;3.00;;;;;13.33;64.11;100298.91;5041579;28;45391;-48
2022/02/18 05:29:42;;;;;;;;;0.00;0.00;;;;;13.35;64.04;100300.63;5041840;28;45327;-51
2022/02/18 05:32:08;;;;;;;;;1.00;0.00;;;;;13.33;63.76;100293.63;5041635;28;46703;-48
2022/02/18 05:34:34;;;;;;;;;1.00;0.00;;;;;13.35;64.09;100290.09;5041943;28;45343;-51
2022/02/18 05:36:59;;;;;;;;;0.00;0.00;;;;;13.32;64.25;100291.03;5041725;28;45318;-52
2022/02/18 05:39:25;;;;;;;;;0.25;0.00;;;;;13.34;64.40;100289.19;5041517;28;45459;-53
2022/02/18 05:41:50;;;;;;;;;0.00;0.00;;;;;13.35;64.37;100295.34;5039846;28;46155;-51
2022/02/18 05:44:16;;;;;;;;;0.00;0.00;;;;;13.34;64.38;100283.91;5041486;28;45343;-48
2022/02/18 05:46:42;;;;;;;;;0.00;0.00;;;;;13.33;64.27;100292.75;5041593;28;45178;-51
2022/02/18 05:49:07;;;;;;;;;0.00;0.00;;;;;13.33;64.56;100276.91;5041672;28;45266;-47
2022/02/18 05:51:33;;;;;;;;;1.00;0.25;;;;;13.28;64.04;100263.88;5041122;28;46244;-48
2022/02/18 05:53:59;;;;;;;;;1.25;0.00;;;;;13.30;64.56;100269.09;5041515;28;45162;-51
2022/02/18 05:56:24;;;;;;;;;0.75;0.50;;;;;13.32;64.13;100243.53;5040373;28;45362;-48
2022/02/18 05:58:50;;;;;;;;;0.00;0.00;;;;;13.30;64.57;100254.13;5041375;28;45247;-50
2022/02/18 06:01:16;;;;;;;;;1.00;0.75;;;;;13.28;64.46;100252.44;5039950;28;47091;-48
2022/02/18 06:03:41;;;;;;;;;0.00;0.00;;;;;13.29;64.42;100225.16;5041396;28;45379;-46
2022/02/18 06:06:06;;;;;;;;;0.50;0.50;;;;;13.28;64.53;100233.97;5041311;28;45615;-50
2022/02/18 06:08:32;;;;;;;;;0.00;0.00;;;;;13.24;64.37;100241.13;5041195;28;45306;-50
2022/02/18 06:10:57;;;;;;;;;0.00;0.00;;;;;13.24;64.47;100227.09;5040640;28;45333;-51
2022/02/18 06:13:22;;;;;;;;;3.00;0.25;;;;;13.24;64.47;100216.53;5041118;28;45465;-51
2022/02/18 06:15:48;;;;;;;;;0.00;0.00;;;;;13.20;64.73;100223.69;5040061;28;45331;-51
2022/02/18 06:18:13;;;;;;;;;0.50;0.25;;;;;13.23;64.49;100214.81;5040952;28;45493;-50
2022/02/18 06:20:38;;;;;;;;;0.50;0.50;;;;;13.19;64.54;100200.84;5040878;28;46017;-52
2022/02/18 06:23:04;;;;;;;;;2.00;0.75;;;;;13.14;64.75;100193.13;5041036;28;45405;-48
2022/02/18 06:25:29;;;;;;;;;1.50;1.00;;;;;13.17;64.54;100195.63;5040801;28;45742;-48
2022/02/18 06:28:24;;;;;;;;;1.00;1.00;;;;;13.21;64.72;100185.00;5040728;28;45504;-46
2022/02/18 06:30:49;;;;;;;;;8.50;7.25;;;;;13.18;64.91;100183.28;5019071;28;46608;-52
2022/02/18 06:33:15;;;;;;;;;10.00;6.25;;;;;13.13;64.84;100174.69;5040821;28;45427;-48
2022/02/18 06:35:42;;;;;;;;;5.00;4.50;;;;;13.19;64.79;100179.75;5040871;28;45458;-51
2022/02/18 06:38:07;;;;;;;;;4.50;2.00;;;;;13.19;64.93;100173.63;5040872;28;45194;-48
2022/02/18 06:40:33;;;;;;;;;0.75;0.75;;;;;13.20;64.24;100180.63;5040085;28;45311;-49
2022/02/18 06:42:59;;;;;;;;;0.00;0.00;;;;;13.19;64.51;100169.19;5040767;28;45184;-46
2022/02/18 06:45:24;;;;;;;;;1.25;1.00;;;;;13.19;64.50;100165.72;5040673;28;45926;-50
2022/02/18 06:47:50;;;;;;;;;2.00;0.75;;;;;13.19;64.25;100166.56;5040725;28;45486;-49
2022/02/18 06:50:17;;;;;;;;;0.00;0.00;;;;;13.15;64.76;100149.97;5040250;28;45342;-46
2022/02/18 06:52:43;;;;;;;;;1.25;1.25;;;;;13.15;64.14;100154.38;5040533;28;45444;-51
2022/02/18 06:55:11;;;;;;;;;2.25;2.00;;;;;13.15;64.54;100149.97;5040181;28;45342;-48
2022/02/18 06:57:46;;;;;;;;;2.25;2.25;;;;;13.11;64.59;100131.69;5040569;28;45236;-51
2022/02/18 07:00:14;;;;;;;;;1.00;1.00;;;;;13.20;64.15;100138.41;5040106;28;45458;-47
2022/02/18 07:02:40;;;;;;;;;3.00;2.00;;;;;13.19;64.26;100157.78;5040268;28;45259;-50
2022/02/18 07:05:08;;;;;;;;;3.25;1.75;;;;;13.14;64.27;100150.91;5040368;28;45500;-52
2022/02/18 07:07:34;;;;;;;;;0.25;0.25;;;;;13.18;64.39;100138.44;5040104;28;45367;-52
2022/02/18 07:10:00;;;;;;;;;4.25;2.00;;;;;13.15;64.40;100133.28;5039574;28;45956;-50
2022/02/18 07:12:27;;;;;;;;;3.00;1.00;;;;;13.12;64.72;100130.78;5039900;28;45405;-51
2022/02/18 07:14:54;;;;;;;;;1.00;1.00;;;;;13.12;64.49;100128.13;5040219;28;45179;-48
2022/02/18 07:17:20;;;;;;;;;1.00;1.00;;;;;13.17;64.50;100102.44;5040048;28;45240;-48
2022/02/18 07:19:46;;;;;;;;;1.75;1.75;;;;;13.13;64.51;100153.56;5040005;28;45670;-49
2022/02/18 07:22:12;;;;;;;;;1.00;1.00;;;;;13.12;64.11;100120.22;5038579;28;45384;-49
2022/02/18 07:24:37;;;;;;;;;1.00;1.00;;;;;13.14;64.64;100123.66;5039809;28;45354;-52
2022/02/18 07:27:03;;;;;;;;;2.00;0.75;;;;;13.14;64.24;100134.19;5039826;28;46238;-48
2022/02/18 07:29:28;;;;;;;;;5.00;2.00;;;;;13.16;64.10;100122.69;5035008;28;46969;-49
2022/02/18 07:31:53;;;;;;;;;3.00;1.00;;;;;13.18;63.94;100104.16;5040126;28;45462;-49
2022/02/18 07:34:19;;;;;;;;;4.00;1.75;;;;;13.17;64.09;100097.19;5036246;28;45273;-50
2022/02/18 07:36:44;;;;;;;;;7.00;4.50;;;;;13.22;63.97;100103.16;5031514;28;45307;-51
2022/02/18 07:39:09;;;;;;;;;3.00;2.50;;;;;13.20;64.43;100096.19;5039670;28;46187;-48
2022/02/18 07:41:35;;;;;;;;;1.00;1.00;;;;;13.14;63.97;100102.53;5039414;28;45457;-46
2022/02/18 07:44:00;;;;;;;;;2.25;2.25;;;;;13.16;64.07;100109.47;5039428;28;45579;-50
2022/02/18 07:46:25;;;;;;;;;2.50;1.25;;;;;13.18;64.22;100130.53;5040352;28;45359;-50
2022/02/18 07:48:51;;;;;;;;;3.00;1.50;;;;;13.17;64.01;100108.56;5057959;28;46183;-51
2022/02/18 07:51:16;;;;;;;;;2.50;2.00;;;;;13.16;64.53;100084.91;5059665;28;45259;-52
2022/02/18 07:53:42;;;;;;;;;2.00;2.00;;;;;13.08;64.34;100094.84;5059961;27;45388;-50
2022/02/18 07:56:07;;;;;;;;;3.00;1.00;;;;;13.15;64.46;100106.91;5055532;28;45236;-52
2022/02/18 07:58:32;;;;;;;;;1.75;0.50;;;;;13.18;64.42;100117.34;5039589;28;45772;-49
2022/02/18 08:00:58;;;;;;;;;3.25;0.75;;;;;13.20;64.35;100110.25;5039529;28;45177;-50
2022/02/18 08:03:26;;;;;;;;;1.00;1.00;;;;;13.21;64.30;100119.88;5039745;28;45312;-49
2022/02/18 08:05:52;;;;;;;;;1.25;1.25;;;;;13.22;64.09;100126.88;5039427;28;45288;-49
2022/02/18 08:08:20;;;;;;;;;1.00;0.50;;;;;13.21;63.53;100135.72;5038007;28;46912;-49
2022/02/18 08:10:46;;;;;;;;;3.00;1.25;;;;;13.23;64.13;100096.97;5037556;28;45472;-51
2022/02/18 08:13:12;;;;;;;;;1.00;1.00;;;;;13.24;64.09;100101.28;5039541;28;45272;-52
2022/02/18 08:15:37;;;;;;;;;1.25;1.25;;;;;13.25;64.23;100097.75;5058968;28;45234;-50
2022/02/18 08:18:04;;;;;;;;;2.00;0.50;;;;;13.21;64.13;100095.28;5059791;28;46344;-50
2022/02/18 08:20:30;;;;;;;;;1.25;0.75;;;;;13.25;64.08;100089.84;5061431;28;45235;-49
2022/02/18 08:22:55;;;;;;;;;1.00;1.00;;;;;13.27;63.83;100072.19;5063082;28;45271;-50
2022/02/18 08:25:22;;;;;;;;;3.25;2.00;;;;;13.29;64.21;100070.31;5062661;28;45603;-51
2022/02/18 08:27:47;;;;;;;;;1.00;1.00;;;;;13.28;63.83;100066.00;5056834;28;46001;-48
2022/02/18 08:30:13;;;;;;;;;2.75;1.75;;;;;13.32;63.85;100075.50;5042329;28;45248;-49
2022/02/18 08:32:38;;;;;;;;;2.75;1.00;;;;;13.23;64.10;100054.75;5042748;28;45322;-48
2022/02/18 08:35:04;;;;;;;;;1.50;1.50;;;;;13.35;63.80;100061.34;5042485;28;45415;-48
2022/02/18 08:37:30;;;;;;;;;1.25;1.25;;;;;13.28;63.91;100046.66;5042161;28;45339;-46
2022/02/18 08:39:55;;;;;;;;;2.50;1.00;;;;;13.33;64.02;100045.56;5042273;28;45284;-48
2022/02/18 08:42:20;;;;;;;;;3.50;2.00;;;;;13.33;63.75;100045.56;5041061;28;45260;-48
2022/02/18 08:44:46;;;;;;;;;3.00;2.00;;;;;13.30;64.03;100037.75;5042349;28;45449;-51
2022/02/18 08:47:11;;;;;;;;;0.50;0.50;;;;;13.30;64.18;100032.47;5042206;28;46271;-49
2022/02/18 08:49:42;;;;;;;;;1.25;1.00;;;;;13.35;63.91;100042.88;5042442;28;45231;-48
2022/02/18 08:52:08;;;;;;;;;2.00;1.00;;;;;13.34;63.94;100027.94;5042460;28;45375;-50
2022/02/18 08:54:33;;;;;;;;;1.75;1.75;;;;;13.31;64.25;100021.00;5042114;28;45284;-50
2022/02/18 08:56:59;;;;;;;;;2.00;1.00;;;;;13.31;64.12;100031.56;5041703;28;46801;-46
2022/02/18 08:59:24;;;;;;;;;2.25;2.00;;;;;13.30;64.39;100040.38;5042337;28;45261;-48
2022/02/18 09:01:50;;;;;;;;;1.50;1.00;;;;;13.33;64.13;100019.19;5042189;28;45335;-45
2022/02/18 09:04:15;;;;;;;;;2.00;2.00;;;;;13.37;64.10;100030.53;5042255;28;45441;-46
2022/02/18 09:06:41;;;;;;;;;2.75;1.50;;;;;13.35;64.08;100027.03;5042025;28;45282;-49
2022/02/18 09:09:06;;;;;;;;;2.75;1.25;;;;;13.39;64.10;100033.94;5042187;28;45252;-49
2022/02/18 09:11:31;;;;;;;;;1.00;1.00;;;;;13.41;64.23;100044.44;5041777;28;45216;-49
2022/02/18 09:13:57;;;;;;;;;1.00;1.00;;;;;13.39;64.40;100033.09;5042307;28;45169;-49
2022/02/18 09:16:22;;;;;;;;;2.25;2.00;;;;;13.39;64.04;100022.53;5040699;28;47267;-51
2022/02/18 09:18:49;;;;;;;;;0.00;0.00;;;;;13.41;64.59;100039.16;5042245;28;45194;-51
2022/02/18 09:21:14;;;;;;;;;0.00;0.00;;;;;13.41;64.23;100010.13;5042103;28;45446;-47
2022/02/18 09:23:40;;;;;;;;;0.75;0.75;;;;;13.41;63.86;100037.41;5041893;28;45331;-48
2022/02/18 09:26:05;;;;;;;;;2.75;0.00;;;;;13.41;64.18;100025.97;5041457;28;46132;-47
2022/02/18 09:28:30;;;;;;;;;1.00;1.00;;;;;13.41;64.45;100010.13;5041725;28;45168;-48
2022/02/18 09:30:56;;;;;;;;;1.00;0.00;;;;;13.42;64.42;100011.84;5040936;28;45476;-48
2022/02/18 09:33:22;;;;;;;;;1.00;1.00;;;;;13.42;64.72;100011.84;5041300;28;45680;-49
2022/02/18 09:35:48;;;;;;;;;1.00;0.00;;;;;13.45;64.04;100001.19;5041899;28;45333;-50
2022/02/18 09:38:14;;;;;;;;;0.00;0.00;;;;;13.41;64.77;99999.56;5041520;28;45319;-47
2022/02/18 09:40:40;;;;;;;;;0.25;0.25;;;;;13.37;64.52;99995.31;5041435;28;45326;-46
2022/02/18 09:43:06;;;;;;;;;0.00;0.00;;;;;13.37;64.46;100004.13;5041606;28;45311;-46
2022/02/18 09:45:32;;;;;;;;;0.50;0.50;;;;;13.30;64.90;99981.50;5041417;28;46114;-51
2022/02/18 09:47:58;;;;;;;;;1.00;1.00;;;;;13.32;64.83;100000.78;5041405;28;45298;-49
2022/02/18 09:50:24;;;;;;;;;1.25;1.25;;;;;13.30;65.29;99997.31;5041478;28;45275;-47
2022/02/18 09:52:49;;;;;;;;;0.75;0.75;;;;;13.33;64.44;100013.03;5041374;28;45478;-49
2022/02/18 09:55:15;;;;;;;;;1.00;1.00;;;;;13.30;64.73;100006.09;5039553;28;47128;-48
2022/02/18 09:57:44;;;;;;;;;1.00;1.00;;;;;13.24;65.18;99995.75;5039948;28;45259;-52
2022/02/18 10:00:11;;;;;;;;;0.50;0.00;;;;;13.22;65.08;99965.97;5041520;28;45358;-51
2022/02/18 10:02:37;;;;;;;;;0.00;0.00;;;;;13.23;64.89;99975.59;5041057;28;45423;-48
2022/02/18 10:05:04;;;;;;;;;0.00;0.00;;;;;13.22;64.74;99981.78;5041285;28;45338;-49
2022/02/18 10:07:33;;;;;;;;;1.00;1.00;;;;;13.20;65.30;99996.78;5040933;28;45260;-52
2022/02/18 10:09:59;;;;;;;;;0.25;0.25;;;;;13.17;65.29;100032.06;5040805;28;45286;-48
2022/02/18 10:12:38;;;;;;;;;1.50;0.25;;;;;13.16;65.46;99995.19;5041077;28;45498;-48
2022/02/18 10:15:09;;;;;;;;;1.00;1.00;;;;;13.12;65.45;99983.91;5040977;28;46072;-49
2022/02/18 10:17:47;;;;;;;;;2.25;1.00;;;;;13.13;65.53;99966.28;5041157;28;45417;-49
2022/02/18 10:20:14;;;;;;;;;1.50;1.00;;;;;13.13;65.26;99966.28;5040958;28;45424;-49
2022/02/18 10:22:54;;;;;;;;;1.50;1.50;;;;;13.09;65.67;99956.78;5041077;28;45512;-50
2022/02/18 10:25:24;;;;;;;;;0.75;0.50;;;;;13.08;65.77;99955.03;5039138;28;47507;-51
2022/02/18 10:27:50;;;;;;;;;1.00;1.00;;;;;13.06;65.66;99962.16;5040635;28;45294;-49
2022/02/18 10:30:22;;;;;;;;;0.00;0.00;;;;;13.07;65.37;99962.09;5040733;28;45270;-47
2022/02/18 10:32:52;;;;;;;;;2.25;1.00;;;;;13.07;65.63;99956.84;5040903;28;45163;-49
2022/02/18 10:35:19;;;;;;;;;2.00;0.75;;;;;13.04;65.64;99954.28;5040682;28;46173;-48
2022/02/18 10:37:54;;;;;;;;;1.25;0.25;;;;;13.03;65.52;99954.34;5039310;28;45343;-49
2022/02/18 10:40:21;;;;;;;;;2.50;1.00;;;;;13.04;66.00;99949.00;5040390;28;45299;-50
2022/02/18 10:42:49;;;;;;;;;3.25;1.25;;;;;13.07;65.91;99932.22;5040203;28;45252;-51
2022/02/18 10:45:21;;;;;;;;;1.50;1.50;;;;;13.05;65.94;100002.66;5040166;28;46127;-51
2022/02/18 10:47:48;;;;;;;;;1.00;1.00;;;;;13.05;65.63;99940.19;5040462;28;45392;-50
2022/02/18 10:50:24;;;;;;;;;1.50;1.00;;;;;13.05;65.93;99941.97;5019420;28;45273;-47
2022/02/18 10:53:20;;;;;;;;;2.75;2.75;;;;;13.03;66.22;99952.59;5040354;28;45225;-47
2022/02/18 10:55:56;;;;;;;;;1.50;1.25;;;;;13.04;65.95;99927.91;5039912;28;45921;-48
2022/02/18 10:58:33;;;;;;;;;0.00;0.00;;;;;13.10;65.15;99929.47;5040384;28;45285;-49
2022/02/18 11:01:07;;;;;;;;;2.00;1.50;;;;;13.08;65.74;99924.28;5040345;28;45281;-53
2022/02/18 11:03:34;;;;;;;;;1.75;1.75;;;;;13.12;65.60;99927.66;5040118;28;45479;-47
2022/02/18 11:06:14;;;;;;;;;2.25;2.25;;;;;13.14;66.10;99931.06;5040350;28;45275;-50
2022/02/18 11:08:49;;;;;;;;;1.50;1.50;;;;;13.16;65.55;99930.09;5040068;28;45330;-46
2022/02/18 11:11:16;;;;;;;;;1.00;1.00;;;;;13.14;66.30;99910.84;5039881;28;45320;-49
2022/02/18 11:13:43;;;;;;;;;2.00;1.00;;;;;13.13;66.18;99929.34;5039900;28;45459;-47
2022/02/18 11:16:11;;;;;;;;;2.00;2.00;;;;;13.14;66.37;99902.06;5040116;28;45454;-46
2022/02/18 11:18:38;;;;;;;;;2.50;1.00;;;;;13.18;66.05;99919.47;5038766;28;45486;-53
2022/02/18 11:21:04;;;;;;;;;3.00;2.00;;;;;13.20;65.62;99965.16;5039932;28;45318;-48